• Join FlightAware (Why Join?)
  • Login
  • US Flag 
09:41PM EDT


 

Airport Tracker/Info


-or-


 

Live Flight TrackerFlight Track Log ✈ SWA540 ✈ 06-Jan-2014 ✈ KBWI - KMDW

Flight Track Log - Related Links

Times and Time Zones

All times are in EST time to prevent confusion due to time zone crossing. See the SWA540 flight status page for this flight to view local times or setup timezone preferences in your user account.

Time Position Orientation Groundspeed Altitude Reporting Facility
EST Latitude Longitude Course Direction KTS MPH feet Rate Location/Type
11:09PM 39.1833 -76.7333 270° West 173 199 3,500  Level Potomac TRACON
11:10PM 39.1833 -76.8000 270° West 196 226 7,300 4,020 Climbing Potomac TRACON
11:11PM 39.2000 -76.8667 288° West 234 269 11,600 3,240 Climbing Potomac TRACON
11:13PM 39.1842 -77.0350 263° West 324 373 15,800 3,060 Climbing Washington Center
11:14PM 39.1639 -77.1497 257° West 326 375 19,700 3,540 Climbing Washington Center
11:15PM 39.1458 -77.2564 258° West 304 350 23,000 1,920 Climbing Washington Center
11:16PM 39.1233 -77.3708 256° West 330 380 23,600 1,560 Climbing Washington Center
11:17PM 39.1008 -77.4853 256° West 335 386 26,100 1,920 Climbing Washington Center
11:18PM 39.0822 -77.5892 257° West 335 386 27,500 2,040 Climbing Washington Center
11:19PM 39.0594 -77.7114 257° West 335 386 30,300 2,340 Climbing Washington Center
11:20PM 39.0386 -77.8258 257° West 335 386 32,300 1,920 Climbing Washington Center
11:21PM 39.0136 -77.9344 254° West 330 380 34,200 1,740 Climbing Washington Center
11:22PM 38.9925 -78.0461 256° West 330 380 35,800 1,380 Climbing Washington Center
11:23PM 38.9714 -78.1575 256° West 330 380 37,100 1,080 Climbing Washington Center
11:24PM 38.9628 -78.2747 265° West 330 380 38,000 420 Climbing Washington Center
11:25PM 38.9703 -78.4031 274° West 342 394 38,000  Level Washington Center
11:26PM 38.9797 -78.5289 276° West 349 402 38,000  Level Washington Center
11:27PM 38.9869 -78.6547 274° West 354 407 38,000  Level Washington Center
11:28PM 38.9961 -78.7806 275° West 354 407 38,000  Level Washington Center
11:29PM 39.0033 -78.9039 274° West 348 400 38,000  Level Washington Center
11:30PM 39.0103 -79.0244 274° West 348 400 38,000  Level Washington Center
11:31PM 39.0172 -79.1475 274° West 348 400 38,000  Level Washington Center
11:32PM 39.0261 -79.2711 275° West 348 400 38,000  Level Washington Center
11:33PM 39.0328 -79.3889 274° West 348 400 38,000  Level Washington Center
11:34PM 39.0392 -79.5122 274° West 348 400 38,000  Level Washington Center
11:35PM 39.0522 -79.6253 278° West 353 406 38,000  Level Washington Center
11:36PM 39.0606 -79.7433 275° West 348 400 38,000  Level Washington Center
11:37PM 39.0686 -79.8719 275° West 353 406 38,000  Level Washington Center
11:38PM 39.0700 -80.0014 271° West 353 406 38,000  Level Indianapolis Center
11:39PM 39.0767 -80.1119 274° West 355 409 38,000  Level Indianapolis Center
11:40PM 39.0844 -80.2389 275° West 358 412 38,000  Level Indianapolis Center
11:41PM 39.0914 -80.3667 274° West 358 412 38,000  Level Indianapolis Center
11:42PM 39.0983 -80.4958 274° West 359 413 38,000  Level Indianapolis Center
11:43PM 39.1047 -80.6242 274° West 360 414 38,000  Level Indianapolis Center
11:44PM 39.1306 -80.7550 284° West 384 442 38,000  Level Indianapolis Center
11:45PM 39.1981 -80.9053 300° West 405 466 38,000  Level Indianapolis Center
11:46PM 39.2506 -81.0278 299° West 398 458 38,000  Level Indianapolis Center
11:47PM 39.3061 -81.1506 300° West 397 457 38,000  Level Indianapolis Center
11:48PM 39.3617 -81.2756 300° West 401 461 38,000  Level Indianapolis Center
11:49PM 39.4158 -81.4000 299° West 399 459 38,000  Level Indianapolis Center
11:50PM 39.4700 -81.5233 300° West 397 457 38,000  Level Indianapolis Center
11:51PM 39.5239 -81.6467 300° West 395 455 38,000  Level Indianapolis Center
11:52PM 39.5781 -81.7728 299° West 399 459 38,000  Level Indianapolis Center
11:53PM 39.6317 -81.8964 299° West 396 456 38,000  Level Indianapolis Center
11:54PM 39.6858 -82.0219 299° West 399 459 38,000  Level Indianapolis Center
11:55PM 39.7378 -82.1450 299° West 396 456 38,000  Level Indianapolis Center
11:56PM 39.7914 -82.2697 299° West 396 456 38,000  Level Indianapolis Center
11:57PM 39.8450 -82.3953 299° West 398 458 38,000  Level Indianapolis Center
11:58PM 39.9086 -82.5453 299° West 397 457 38,000  Level Indianapolis Center
11:59PM 39.9614 -82.6708 299° West 397 457 38,000  Level Indianapolis Center
12:00AM 40.0147 -82.7947 299° West 396 456 38,000  Level Indianapolis Center
12:01AM 40.0667 -82.9208 298° West 397 457 38,000  Level Indianapolis Center
12:02AM 40.1192 -83.0467 299° West 399 459 38,000  Level Indianapolis Center
12:03AM 40.1711 -83.1728 298° West 399 459 38,000  Level Indianapolis Center
12:04AM 40.2369 -83.2897 306° West 404 465 38,000  Level Indianapolis Center
12:05AM 40.3042 -83.4072 307° West 406 467 38,000  Level Indianapolis Center
12:06AM 40.3703 -83.5250 306° West 406 467 38,000  Level Indianapolis Center
12:07AM 40.4364 -83.6419 307° West 403 464 38,000  Level Indianapolis Center
12:08AM 40.5036 -83.7594 307° West 404 465 38,000  Level Indianapolis Center
12:09AM 40.5831 -83.9014 306° West 403 464 38,000  Level Indianapolis Center
12:10AM 40.6500 -84.0192 307° West 404 465 38,000  Level Indianapolis Center
12:11AM 40.7150 -84.1392 306° West 404 465 38,000  Level Indianapolis Center
12:12AM 40.7814 -84.2567 307° West 403 464 38,000  Level Indianapolis Center
12:13AM 40.8464 -84.3742 306° West 399 459 38,000  Level Indianapolis Center
12:14AM 40.9064 -84.4811 307° West 401 461 38,000  Level Chicago Center
12:15AM 40.9703 -84.6000 305° West 398 458 38,000  Level Chicago Center
12:16AM 41.0108 -84.7328 292° West 395 455 38,000 -300 Level Chicago Center
12:17AM 41.0378 -84.8731 284° West 394 453 37,400 -780 Descending Chicago Center
12:18AM 41.0644 -85.0136 284° West 393 452 36,500 -960 Descending Chicago Center
12:19AM 41.0903 -85.1547 284° West 393 452 35,500 -960 Descending Chicago Center
12:20AM 41.1161 -85.2939 284° West 391 450 34,600 -780 Descending Chicago Center
12:21AM 41.1422 -85.4347 284° West 391 450 34,000 -360 Descending Chicago Center
12:22AM 41.1675 -85.5739 284° West 389 448 33,900  Descending Chicago Center
12:23AM 41.1925 -85.7136 283° West 386 444 34,000  Climbing Chicago Center
12:24AM 41.2169 -85.8492 284° West 379 436 34,000  Level Chicago Center
12:25AM 41.2408 -85.9881 283° West 382 440 34,000 -1,500 Level Chicago Center
12:26AM 41.2653 -86.1256 283° West 382 440 31,000 -3,000 Descending Chicago Center
12:27AM 41.2889 -86.2636 283° West 382 440 28,000 -2,880 Descending Chicago Center
12:28AM 41.3125 -86.3958 283° West 371 427 25,300 -2,640 Descending Chicago Center
12:29AM 41.3336 -86.5208 283° West 351 404 22,700 -2,520 Descending Chicago Center
12:30AM 41.3542 -86.6361 283° West 328 377 20,300 -2,340 Descending Chicago Center
12:31AM 41.3742 -86.7539 283° West 312 359 18,000 -2,340 Descending Chicago Center
12:32AM 41.3914 -86.8594 282° West 295 339 15,700 -2,400 Descending Chicago Center
12:33AM 41.4183 -86.9614 289° West 293 337 13,200 -2,460 Descending Chicago Center
12:34AM 41.4547 -87.0553 297° West 288 331 10,800 -1,560 Descending Chicago Center
12:35AM 41.4867 -87.1381 297° West 257 296 10,100 -840 Descending Chicago Center
12:36AM 41.5156 -87.2078 299° West 223 257 9,200 -1,140 Descending Chicago Center
12:37AM 41.5428 -87.2772 298° West 213 245 7,900 -1,260 Descending Chicago Center
12:38AM 41.5706 -87.3478 298° West 214 246 6,700 -1,260 Descending Chicago Center
12:39AM 41.5978 -87.4178 297° West 213 245 5,400 -960 Descending Chicago Center
12:40AM 41.6239 -87.4839 298° West 209 241 4,800 -600 Descending Chicago Center
12:41AM 41.6469 -87.5425 298° West 195 224 4,300 -600 Descending Chicago Center
12:42AM 41.6697 -87.5969 299° West 182 209 3,700 -720 Descending Chicago Center
12:43AM 41.7025 -87.6358 318° Northwest 170 196 2,900 -840 Descending Chicago Center
12:44AM 41.7278 -87.6722 313° West 151 174 2,100 -720 Descending Chicago Center
12:45AM 41.7519 -87.7081 312° West 126 145 1,500 -540 Descending Chicago Center
12:46AM 41.7692 -87.7300 316° Northwest 116 133 1,100 -420 Descending Chicago Center
12:48AM 41.7833 -87.7500 334° Northwest  Level FlightAware Approximate